Hallie T — WDI8725 — position and weather

sailwx.info

Track history (hours):
 
Tides and Currents Weather Stations Pressure Air Temp Water Temp Dewpoint Dewpoint Depression Visibility Wind Speed Wind Dir Waves Ship Positions

Hallie T

Owner: Terral RiverService, Inc., Lake Providence, LA. More information available from US FCC via Universal Licensing System and Coast Guard Vessel Documentation Center.

Last reported at 2017-Sep-21 23:00 UTC. Time now 2017-Sep-21 23:22 UTC.
Position N 29°47' W 092°11'.

Length 30 m.

Type: Towing. MMSI: 367741510.

Date/timePositionNaut miles runAvg speedWind from/ knotsBaromVisibWave heightAir tempDewpointWater temp
2017-Sep-21 23:00N 29°47' W 092°11'0 0.0
2017-Sep-21 22:30N 29°47' W 092°11'0 0.0
2017-Sep-21 22:00N 29°47' W 092°11'0 0.0
2017-Sep-21 21:30N 29°47' W 092°11'0 0.0
2017-Sep-21 21:00N 29°47' W 092°11'0 0.0
2017-Sep-21 20:30N 29°47' W 092°11'0 0.0
2017-Sep-21 20:00N 29°47' W 092°11'0 0.0
2017-Sep-21 19:27N 29°47' W 092°11'0 0.0
2017-Sep-21 19:00N 29°47' W 092°11'0 0.0
2017-Sep-21 18:30N 29°47' W 092°11'0 0.0
2017-Sep-21 18:00N 29°47' W 092°11'0 0.0
2017-Sep-21 17:30N 29°47' W 092°11'0 0.0
2017-Sep-21 17:00N 29°47' W 092°11'0 0.0
2017-Sep-21 16:24N 29°47' W 092°11'0 0.0
2017-Sep-21 16:00N 29°47' W 092°11'0 0.0
2017-Sep-21 15:30N 29°47' W 092°11'0 0.0
2017-Sep-21 15:00N 29°47' W 092°11'0 0.0
2017-Sep-21 14:30N 29°47' W 092°11'0 0.0
2017-Sep-21 14:00N 29°47' W 092°11'0 0.0
2017-Sep-21 13:30N 29°47' W 092°11'1 2.8
2017-Sep-21 13:00N 29°47' W 092°12'3 6.1
2017-Sep-21 12:30N 29°48' W 092°16'3 6.6
2017-Sep-21 12:00N 29°50' W 092°19'37 5.7
2017-Sep-21 05:29N 29°56' W 093°02'3 6.4
2017-Sep-21 05:00N 29°56' W 093°05'3 6.0
2017-Sep-21 04:30N 29°56' W 093°09'3 5.6
2017-Sep-21 04:00N 29°58' W 093°11'3 6.0
2017-Sep-21 03:30N 29°60' W 093°13'2 3.9
2017-Sep-21 03:00N 30°02' W 093°14'2 4.5
2017-Sep-21 02:30N 30°04' W 093°16'2 4.7
2017-Sep-21 02:00N 30°05' W 093°18'1 1.8
2017-Sep-21 01:30N 30°06' W 093°18'0 0.0
2017-Sep-21 01:00N 30°06' W 093°18'3 5.1
2017-Sep-21 00:30N 30°04' W 093°21'1 2.9
2017-Sep-21 00:00N 30°04' W 093°22'0 0.0
2017-Sep-20 23:30N 30°04' W 093°22'0 0.1
2017-Sep-20 23:00N 30°04' W 093°22'0 0.1
2017-Sep-20 22:30N 30°04' W 093°22'0 0.0
2017-Sep-20 22:00N 30°04' W 093°22'1 1.2
2017-Sep-20 21:31N 30°04' W 093°21'0 0.2
2017-Sep-20 21:00N 30°04' W 093°21'0 0.4
2017-Sep-20 20:30N 30°04' W 093°22'0 0.6
2017-Sep-20 20:00N 30°04' W 093°22'0 0.0
2017-Sep-20 19:30N 30°04' W 093°22'0 0.4
2017-Sep-20 19:00N 30°04' W 093°22'0 0.0
2017-Sep-20 18:30N 30°04' W 093°22'3 6.3
2017-Sep-20 18:00N 30°04' W 093°26'3 6.5
2017-Sep-20 17:30N 30°04' W 093°30'3 5.7
2017-Sep-20 17:00N 30°04' W 093°33'2 4.7
2017-Sep-20 16:30N 30°04' W 093°36'74 5.5
2017-Sep-20 03:01N 29°30' W 094°52'4 7.9
2017-Sep-20 02:30N 29°33' W 094°54'4 7.4
2017-Sep-20 02:00N 29°36' W 094°57'4 7.7
2017-Sep-20 01:30N 29°40' W 094°58'4 8.1
2017-Sep-20 01:00N 29°43' W 095°01'4 8.0
2017-Sep-20 00:27N 29°46' W 095°05'4 7.9
2017-Sep-19 23:57N 29°44' W 095°09'1 1.3
2017-Sep-19 23:07N 29°45' W 095°10'1 4.5
2017-Sep-19 22:57N 29°45' W 095°10'4 7.9
2017-Sep-19 22:29N 29°46' W 095°05'4 7.8
2017-Sep-19 22:00N 29°44' W 095°02'4 7.8
2017-Sep-19 21:30N 29°41' W 094°59'5 9.0
2017-Sep-19 21:00N 29°37' W 094°57'5 9.3
2017-Sep-19 20:30N 29°33' W 094°54'  
2017-Sep-17 03:00N 30°06' W 094°06'  
2017-Sep-14 22:01N 30°03' W 093°42'3 5.3
2017-Sep-14 21:30N 30°04' W 093°39'2 4.7
2017-Sep-14 21:01N 30°04' W 093°36'2 4.1
2017-Sep-14 20:30N 30°04' W 093°34'2 4.1
2017-Sep-14 20:01N 30°04' W 093°32'2 4.1
2017-Sep-14 19:31N 30°04' W 093°29'2 4.1
2017-Sep-14 19:01N 30°04' W 093°27'2 4.1
2017-Sep-14 18:30N 30°04' W 093°24'2 4.2
2017-Sep-14 18:01N 30°04' W 093°22'2 4.1
2017-Sep-14 17:31N 30°05' W 093°20'2 3.8
2017-Sep-14 17:01N 30°06' W 093°18'0 0.1
2017-Sep-14 16:31N 30°06' W 093°18'0 0.5
2017-Sep-14 16:01N 30°06' W 093°18'0 0.0
2017-Sep-14 15:31N 30°06' W 093°18'0 0.0
2017-Sep-14 15:01N 30°06' W 093°18'0 0.0
2017-Sep-14 14:30N 30°06' W 093°18'1 2.8
2017-Sep-14 14:01N 30°05' W 093°17'1 1.4
2017-Sep-14 13:31N 30°04' W 093°16'2 3.3
2017-Sep-14 12:56N 30°06' W 093°18'2 4.5
2017-Sep-14 12:30N 30°04' W 093°16'0 0.1
2017-Sep-14 12:00N 30°04' W 093°16'0 0.0
2017-Sep-14 11:30N 30°04' W 093°16'0 0.0
2017-Sep-14 11:01N 30°04' W 093°16'0 0.0
2017-Sep-14 10:30N 30°04' W 093°16'0 0.0
2017-Sep-14 10:00N 30°04' W 093°16'0 0.0
2017-Sep-14 09:29N 30°04' W 093°16'0 0.0
2017-Sep-14 09:00N 30°04' W 093°16'0 0.0
2017-Sep-14 08:30N 30°04' W 093°16'0 0.0
2017-Sep-14 08:00N 30°04' W 093°16'0 0.0
2017-Sep-14 07:30N 30°04' W 093°16'0 0.0
2017-Sep-14 07:00N 30°04' W 093°16'0 0.0
2017-Sep-14 06:30N 30°04' W 093°16'0 0.0
2017-Sep-14 06:01N 30°04' W 093°16'0 0.0
2017-Sep-14 05:30N 30°04' W 093°16'0 0.0
2017-Sep-14 05:00N 30°04' W 093°16'0 0.0
2017-Sep-14 04:30N 30°04' W 093°16'0 0.0
2017-Sep-14 04:00N 30°04' W 093°16'0 0.0
2017-Sep-14 03:30N 30°04' W 093°16'1 1.2
2017-Sep-14 03:00N 30°04' W 093°16'2 4.6
2017-Sep-14 02:30N 30°02' W 093°15'2 4.5
2017-Sep-14 02:00N 29°60' W 093°13'2 4.3
2017-Sep-14 01:31N 29°58' W 093°12'3 5.1
2017-Sep-14 01:00N 29°56' W 093°10'2 4.7
2017-Sep-14 00:30N 29°56' W 093°07'2 4.7
2017-Sep-14 00:00N 29°56' W 093°04'38 4.0
2017-Sep-13 14:35N 29°51' W 092°21'0 3.7
2017-Sep-13 14:30N 29°51' W 092°21'2 3.6
2017-Sep-13 14:01N 29°50' W 092°19'1 2.6
2017-Sep-13 13:30N 29°50' W 092°18'2 3.6
2017-Sep-13 13:00N 29°49' W 092°16'2 4.0
2017-Sep-13 12:30N 29°48' W 092°14'2 3.1
2017-Sep-13 12:00N 29°47' W 092°12'1 2.4
2017-Sep-13 11:30N 29°47' W 092°11'2 4.0
2017-Sep-13 11:00N 29°47' W 092°09'2 4.0
2017-Sep-13 10:30N 29°48' W 092°07'2 3.8
2017-Sep-13 10:00N 29°48' W 092°05'2 4.0
2017-Sep-13 09:30N 29°49' W 092°02'2 4.5
2017-Sep-13 09:00N 29°50' W 092°00'2 4.3
2017-Sep-13 08:30N 29°50' W 091°58'  
Track history (hours):
 
Tides and Currents Weather Stations Pressure Air Temp Water Temp Dewpoint Dewpoint Depression Visibility Wind Speed Wind Dir Waves Ship Positions

Hallie T

Owner: Terral RiverService, Inc., Lake Providence, LA. More information available from US FCC via Universal Licensing System and Coast Guard Vessel Documentation Center.

Last reported at 2017-Sep-21 23:00 UTC. Time now 2017-Sep-21 23:22 UTC.
Position N 29°47' W 092°11'.

Length 30 m.

Type: Towing. MMSI: 367741510.

Date/timePositionNaut miles runAvg speedWind from/ knotsBaromVisibWave heightAir tempDewpointWater temp
2017-Sep-21 23:00N 29°47' W 092°11'0 0.0
2017-Sep-21 22:30N 29°47' W 092°11'0 0.0
2017-Sep-21 22:00N 29°47' W 092°11'0 0.0
2017-Sep-21 21:30N 29°47' W 092°11'0 0.0
2017-Sep-21 21:00N 29°47' W 092°11'0 0.0
2017-Sep-21 20:30N 29°47' W 092°11'0 0.0
2017-Sep-21 20:00N 29°47' W 092°11'0 0.0
2017-Sep-21 19:27N 29°47' W 092°11'0 0.0
2017-Sep-21 19:00N 29°47' W 092°11'0 0.0
2017-Sep-21 18:30N 29°47' W 092°11'0 0.0
2017-Sep-21 18:00N 29°47' W 092°11'0 0.0
2017-Sep-21 17:30N 29°47' W 092°11'0 0.0
2017-Sep-21 17:00N 29°47' W 092°11'0 0.0
2017-Sep-21 16:24N 29°47' W 092°11'0 0.0
2017-Sep-21 16:00N 29°47' W 092°11'0 0.0
2017-Sep-21 15:30N 29°47' W 092°11'0 0.0
2017-Sep-21 15:00N 29°47' W 092°11'0 0.0
2017-Sep-21 14:30N 29°47' W 092°11'0 0.0
2017-Sep-21 14:00N 29°47' W 092°11'0 0.0
2017-Sep-21 13:30N 29°47' W 092°11'1 2.8
2017-Sep-21 13:00N 29°47' W 092°12'3 6.1
2017-Sep-21 12:30N 29°48' W 092°16'3 6.6
2017-Sep-21 12:00N 29°50' W 092°19'37 5.7
2017-Sep-21 05:29N 29°56' W 093°02'3 6.4
2017-Sep-21 05:00N 29°56' W 093°05'3 6.0
2017-Sep-21 04:30N 29°56' W 093°09'3 5.6
2017-Sep-21 04:00N 29°58' W 093°11'3 6.0
2017-Sep-21 03:30N 29°60' W 093°13'2 3.9
2017-Sep-21 03:00N 30°02' W 093°14'2 4.5
2017-Sep-21 02:30N 30°04' W 093°16'2 4.7
2017-Sep-21 02:00N 30°05' W 093°18'1 1.8
2017-Sep-21 01:30N 30°06' W 093°18'0 0.0
2017-Sep-21 01:00N 30°06' W 093°18'3 5.1
2017-Sep-21 00:30N 30°04' W 093°21'1 2.9
2017-Sep-21 00:00N 30°04' W 093°22'0 0.0
2017-Sep-20 23:30N 30°04' W 093°22'0 0.1
2017-Sep-20 23:00N 30°04' W 093°22'0 0.1
2017-Sep-20 22:30N 30°04' W 093°22'0 0.0
2017-Sep-20 22:00N 30°04' W 093°22'1 1.2
2017-Sep-20 21:31N 30°04' W 093°21'0 0.2
2017-Sep-20 21:00N 30°04' W 093°21'0 0.4
2017-Sep-20 20:30N 30°04' W 093°22'0 0.6
2017-Sep-20 20:00N 30°04' W 093°22'0 0.0
2017-Sep-20 19:30N 30°04' W 093°22'0 0.4
2017-Sep-20 19:00N 30°04' W 093°22'0 0.0
2017-Sep-20 18:30N 30°04' W 093°22'3 6.3
2017-Sep-20 18:00N 30°04' W 093°26'3 6.5
2017-Sep-20 17:30N 30°04' W 093°30'3 5.7
2017-Sep-20 17:00N 30°04' W 093°33'2 4.7
2017-Sep-20 16:30N 30°04' W 093°36'74 5.5
2017-Sep-20 03:01N 29°30' W 094°52'4 7.9
2017-Sep-20 02:30N 29°33' W 094°54'4 7.4
2017-Sep-20 02:00N 29°36' W 094°57'4 7.7
2017-Sep-20 01:30N 29°40' W 094°58'4 8.1
2017-Sep-20 01:00N 29°43' W 095°01'4 8.0
2017-Sep-20 00:27N 29°46' W 095°05'4 7.9
2017-Sep-19 23:57N 29°44' W 095°09'1 1.3
2017-Sep-19 23:07N 29°45' W 095°10'1 4.5
2017-Sep-19 22:57N 29°45' W 095°10'4 7.9
2017-Sep-19 22:29N 29°46' W 095°05'4 7.8
2017-Sep-19 22:00N 29°44' W 095°02'4 7.8
2017-Sep-19 21:30N 29°41' W 094°59'5 9.0
2017-Sep-19 21:00N 29°37' W 094°57'5 9.3
2017-Sep-19 20:30N 29°33' W 094°54'  
2017-Sep-17 03:00N 30°06' W 094°06'  
2017-Sep-14 22:01N 30°03' W 093°42'3 5.3
2017-Sep-14 21:30N 30°04' W 093°39'2 4.7
2017-Sep-14 21:01N 30°04' W 093°36'2 4.1
2017-Sep-14 20:30N 30°04' W 093°34'2 4.1
2017-Sep-14 20:01N 30°04' W 093°32'2 4.1
2017-Sep-14 19:31N 30°04' W 093°29'2 4.1
2017-Sep-14 19:01N 30°04' W 093°27'2 4.1
2017-Sep-14 18:30N 30°04' W 093°24'2 4.2
2017-Sep-14 18:01N 30°04' W 093°22'2 4.1
2017-Sep-14 17:31N 30°05' W 093°20'2 3.8
2017-Sep-14 17:01N 30°06' W 093°18'0 0.1
2017-Sep-14 16:31N 30°06' W 093°18'0 0.5
2017-Sep-14 16:01N 30°06' W 093°18'0 0.0
2017-Sep-14 15:31N 30°06' W 093°18'0 0.0
2017-Sep-14 15:01N 30°06' W 093°18'0 0.0
2017-Sep-14 14:30N 30°06' W 093°18'1 2.8
2017-Sep-14 14:01N 30°05' W 093°17'1 1.4
2017-Sep-14 13:31N 30°04' W 093°16'2 3.3
2017-Sep-14 12:56N 30°06' W 093°18'2 4.5
2017-Sep-14 12:30N 30°04' W 093°16'0 0.1
2017-Sep-14 12:00N 30°04' W 093°16'0 0.0
2017-Sep-14 11:30N 30°04' W 093°16'0 0.0
2017-Sep-14 11:01N 30°04' W 093°16'0 0.0
2017-Sep-14 10:30N 30°04' W 093°16'0 0.0
2017-Sep-14 10:00N 30°04' W 093°16'0 0.0
2017-Sep-14 09:29N 30°04' W 093°16'0 0.0
2017-Sep-14 09:00N 30°04' W 093°16'0 0.0
2017-Sep-14 08:30N 30°04' W 093°16'0 0.0
2017-Sep-14 08:00N 30°04' W 093°16'0 0.0
2017-Sep-14 07:30N 30°04' W 093°16'0 0.0
2017-Sep-14 07:00N 30°04' W 093°16'0 0.0
2017-Sep-14 06:30N 30°04' W 093°16'0 0.0
2017-Sep-14 06:01N 30°04' W 093°16'0 0.0
2017-Sep-14 05:30N 30°04' W 093°16'0 0.0
2017-Sep-14 05:00N 30°04' W 093°16'0 0.0
2017-Sep-14 04:30N 30°04' W 093°16'0 0.0
2017-Sep-14 04:00N 30°04' W 093°16'0 0.0
2017-Sep-14 03:30N 30°04' W 093°16'1 1.2
2017-Sep-14 03:00N 30°04' W 093°16'2 4.6
2017-Sep-14 02:30N 30°02' W 093°15'2 4.5
2017-Sep-14 02:00N 29°60' W 093°13'2 4.3
2017-Sep-14 01:31N 29°58' W 093°12'3 5.1
2017-Sep-14 01:00N 29°56' W 093°10'2 4.7
2017-Sep-14 00:30N 29°56' W 093°07'2 4.7
2017-Sep-14 00:00N 29°56' W 093°04'38 4.0
2017-Sep-13 14:35N 29°51' W 092°21'0 3.7
2017-Sep-13 14:30N 29°51' W 092°21'2 3.6
2017-Sep-13 14:01N 29°50' W 092°19'1 2.6
2017-Sep-13 13:30N 29°50' W 092°18'2 3.6
2017-Sep-13 13:00N 29°49' W 092°16'2 4.0
2017-Sep-13 12:30N 29°48' W 092°14'2 3.1
2017-Sep-13 12:00N 29°47' W 092°12'1 2.4
2017-Sep-13 11:30N 29°47' W 092°11'2 4.0
2017-Sep-13 11:00N 29°47' W 092°09'2 4.0
2017-Sep-13 10:30N 29°48' W 092°07'2 3.8
2017-Sep-13 10:00N 29°48' W 092°05'2 4.0
2017-Sep-13 09:30N 29°49' W 092°02'2 4.5
2017-Sep-13 09:00N 29°50' W 092°00'2 4.3
2017-Sep-13 08:30N 29°50' W 091°58'  

Dump ship's entire track history